createdAt,value
2019-06-10T00:01:40.832Z,5.00
2019-06-10T00:04:09.584Z,4.37
2019-06-10T00:06:35.618Z,4.63
2019-06-10T00:09:06.038Z,4.63
2019-06-10T00:11:32.151Z,3.73
2019-06-10T00:13:58.612Z,4.43
2019-06-10T00:16:24.982Z,3.57
2019-06-10T00:18:51.338Z,4.10
2019-06-10T00:21:17.713Z,3.90
2019-06-10T00:23:44.083Z,4.90
2019-06-10T00:26:12.642Z,5.43
2019-06-10T00:28:40.677Z,7.20
2019-06-10T00:31:07.135Z,7.70
2019-06-10T00:33:33.455Z,6.70
2019-06-10T00:36:03.693Z,3.27
2019-06-10T00:38:28.008Z,5.67
2019-06-10T00:40:54.345Z,5.87
2019-06-10T00:43:21.375Z,4.40
2019-06-10T00:45:48.302Z,3.10
2019-06-10T00:48:25.215Z,3.50
2019-06-10T00:50:43.632Z,6.73
2019-06-10T00:53:14.120Z,9.13
2019-06-10T00:55:41.555Z,3.87
2019-06-10T00:58:07.579Z,4.63
2019-06-10T01:00:35.274Z,4.43
2019-06-10T01:03:02.398Z,4.30
2019-06-10T01:05:30.941Z,3.40
2019-06-10T01:07:57.092Z,4.53
2019-06-10T01:10:23.417Z,5.10
2019-06-10T01:12:51.345Z,3.20
2019-06-10T01:15:17.872Z,5.40
2019-06-10T01:17:44.258Z,4.80
2019-06-10T01:20:14.392Z,7.63
2019-06-10T01:22:41.067Z,6.27
2019-06-10T01:25:07.304Z,6.40
2019-06-10T01:27:33.645Z,5.50
2019-06-10T01:30:01.725Z,8.53
2019-06-10T01:32:28.216Z,5.90
2019-06-10T01:34:54.553Z,7.10
2019-06-10T01:37:21.824Z,4.57
2019-06-10T01:39:48.537Z,9.33
2019-06-10T01:42:15.865Z,4.00
2019-06-10T01:44:43.221Z,6.87
2019-06-10T01:47:14.329Z,5.17
2019-06-10T01:49:41.279Z,5.37
2019-06-10T01:52:09.348Z,8.20
2019-06-10T01:54:36.614Z,6.27
2019-06-10T01:57:02.936Z,9.03
2019-06-10T01:59:31.117Z,3.70
2019-06-10T02:02:00.962Z,9.03
2019-06-10T02:04:27.853Z,7.33
2019-06-10T02:06:54.181Z,4.93
2019-06-10T02:09:23.030Z,4.43
2019-06-10T02:11:48.740Z,4.07
2019-06-10T02:14:17.862Z,6.80
2019-06-10T02:16:43.611Z,5.13
2019-06-10T02:19:13.791Z,6.63
2019-06-10T02:21:38.367Z,7.97
2019-06-10T02:24:04.732Z,6.80
2019-06-10T02:26:41.096Z,5.60
2019-06-10T02:29:07.506Z,5.67
2019-06-10T02:31:37.267Z,7.20
2019-06-10T02:34:02.769Z,7.10
2019-06-10T02:36:35.448Z,5.00
2019-06-10T02:38:57.457Z,5.40
2019-06-10T02:41:31.656Z,12.03
2019-06-10T02:43:53.375Z,6.07
2019-06-10T02:46:24.532Z,15.37
2019-06-10T02:48:48.246Z,6.00
2019-06-10T02:51:15.814Z,10.13
2019-06-10T02:53:43.737Z,6.27
2019-06-10T02:56:12.606Z,8.07
2019-06-10T02:58:40.117Z,7.63
2019-06-10T03:01:06.873Z,6.10
2019-06-10T03:03:42.669Z,10.67
2019-06-10T03:06:06.615Z,6.03
2019-06-10T03:08:32.779Z,5.97
2019-06-10T03:11:03.766Z,7.53
2019-06-10T03:13:30.313Z,6.03
2019-06-10T03:16:15.700Z,6.47
2019-06-10T03:18:43.391Z,8.27
2019-06-10T03:21:12.243Z,8.10
2019-06-10T03:23:38.278Z,6.70
2019-06-10T03:26:04.603Z,8.13
2019-06-10T03:28:32.075Z,6.20
2019-06-10T03:30:59.214Z,11.20
2019-06-10T03:33:31.495Z,6.80
2019-06-10T03:35:55.549Z,7.30
2019-06-10T03:38:23.667Z,6.17
2019-06-10T03:40:52.341Z,6.27
2019-06-10T03:43:18.756Z,6.90
2019-06-10T03:45:45.541Z,6.80
2019-06-10T03:48:13.124Z,5.63
2019-06-10T03:50:40.087Z,8.80
2019-06-10T03:53:06.420Z,6.03
2019-06-10T03:55:33.184Z,6.97
2019-06-10T03:58:02.151Z,9.80
2019-06-10T04:00:28.930Z,5.20
2019-06-10T04:02:55.459Z,7.83
2019-06-10T04:05:23.918Z,5.90
2019-06-10T04:07:50.058Z,5.10
2019-06-10T04:10:17.539Z,5.83
2019-06-10T04:12:43.961Z,6.07
2019-06-10T04:15:12.290Z,8.00
2019-06-10T04:17:38.866Z,4.67
2019-06-10T04:20:11.559Z,5.30
2019-06-10T04:22:33.758Z,9.13
2019-06-10T04:25:02.805Z,8.20
2019-06-10T04:27:28.530Z,5.63
2019-06-10T04:29:55.005Z,6.33
2019-06-10T04:32:23.114Z,6.60
2019-06-10T04:34:49.612Z,6.00
2019-06-10T04:37:15.929Z,8.87
2019-06-10T04:39:42.757Z,6.63
2019-06-10T04:42:09.184Z,5.17
2019-06-10T04:44:35.851Z,6.60
2019-06-10T04:47:02.840Z,6.60
2019-06-10T04:49:29.811Z,8.63
2019-06-10T04:51:57.255Z,5.63
2019-06-10T04:54:26.312Z,14.60
2019-06-10T04:56:52.957Z,7.60
2019-06-10T04:59:19.323Z,5.60
2019-06-10T05:01:46.063Z,6.30
2019-06-10T05:04:12.748Z,5.57
2019-06-10T05:06:39.205Z,4.67
2019-06-10T05:09:05.877Z,5.20
2019-06-10T05:11:33.076Z,5.43
2019-06-10T05:13:59.700Z,6.90
2019-06-10T05:16:30.071Z,7.03
2019-06-10T05:18:54.970Z,5.40
2019-06-10T05:21:24.542Z,9.50
2019-06-10T05:23:52.110Z,5.30
2019-06-10T05:26:18.405Z,5.67
2019-06-10T05:28:46.117Z,6.17
2019-06-10T05:31:13.578Z,5.87
2019-06-10T05:33:42.582Z,4.77
2019-06-10T05:36:10.205Z,7.40
2019-06-10T05:38:36.665Z,6.70
2019-06-10T05:41:03.179Z,6.50
2019-06-10T05:43:29.700Z,22.40
2019-06-10T05:45:56.469Z,6.07
2019-06-10T05:48:24.997Z,6.57
2019-06-10T05:51:00.217Z,7.70
2019-06-10T05:53:19.296Z,5.90
2019-06-10T05:55:45.630Z,7.70
2019-06-10T05:58:12.908Z,7.20
2019-06-10T06:00:39.448Z,10.77
2019-06-10T06:03:05.819Z,7.13
2019-06-10T06:05:36.092Z,5.83
2019-06-10T06:08:08.223Z,13.20
2019-06-10T06:10:29.919Z,10.50
2019-06-10T06:12:56.263Z,5.70
2019-06-10T06:15:22.597Z,6.30
2019-06-10T06:18:05.019Z,6.00
2019-06-10T06:20:17.963Z,9.43
2019-06-10T06:22:44.304Z,6.47
2019-06-10T06:25:15.161Z,7.00
2019-06-10T06:27:41.936Z,12.20
2019-06-10T06:30:15.081Z,6.77
2019-06-10T06:32:38.173Z,9.17
2019-06-10T06:35:05.233Z,9.77
2019-06-10T06:37:34.667Z,5.70
2019-06-10T06:40:02.628Z,8.10
2019-06-10T06:42:29.376Z,5.73
2019-06-10T06:44:55.863Z,7.73
2019-06-10T06:47:22.709Z,8.13
2019-06-10T06:49:49.322Z,5.13
2019-06-10T06:52:15.821Z,9.70
2019-06-10T06:54:42.561Z,7.10
2019-06-10T06:57:09.054Z,5.63
2019-06-10T06:59:37.302Z,6.80
2019-06-10T07:02:03.874Z,18.47
2019-06-10T07:04:32.692Z,5.80
2019-06-10T07:07:02.563Z,6.30
2019-06-10T07:09:33.138Z,7.40
2019-06-10T07:12:03.766Z,8.67
2019-06-10T07:14:34.344Z,6.07
2019-06-10T07:16:59.918Z,7.00
2019-06-10T07:19:26.276Z,11.37
2019-06-10T07:22:08.654Z,6.57
2019-06-10T07:24:23.011Z,7.67
2019-06-10T07:26:53.960Z,7.37
2019-06-10T07:29:17.569Z,6.13
2019-06-10T07:31:46.663Z,10.03
2019-06-10T07:34:13.193Z,6.50
2019-06-10T07:36:40.871Z,6.40
2019-06-10T07:39:07.937Z,11.47
2019-06-10T07:41:35.627Z,6.67
2019-06-10T07:44:04.326Z,6.67
2019-06-10T07:46:33.089Z,6.47
2019-06-10T07:48:59.063Z,9.90
2019-06-10T07:51:25.375Z,7.53
2019-06-10T07:53:52.589Z,10.53
2019-06-10T07:56:19.482Z,8.70
2019-06-10T07:58:47.636Z,6.47
2019-06-10T08:01:14.193Z,6.97
2019-06-10T08:03:41.800Z,7.20
2019-06-10T08:06:12.452Z,7.87
2019-06-10T08:08:38.849Z,9.73
2019-06-10T08:11:05.587Z,6.13
2019-06-10T08:13:33.069Z,8.50
2019-06-10T08:15:59.389Z,7.70
2019-06-10T08:18:25.754Z,6.37
2019-06-10T08:20:52.878Z,7.40
2019-06-10T08:23:19.581Z,6.80
2019-06-10T08:25:53.343Z,5.63
2019-06-10T08:28:15.492Z,7.83
2019-06-10T08:30:45.903Z,8.53
2019-06-10T08:33:13.796Z,7.27
2019-06-10T08:35:49.457Z,9.40
2019-06-10T08:38:09.181Z,10.83
2019-06-10T08:40:36.324Z,11.67
2019-06-10T08:43:04.862Z,8.33
2019-06-10T08:45:33.324Z,7.00
2019-06-10T08:47:59.679Z,10.77
2019-06-10T08:50:26.322Z,8.77
2019-06-10T08:53:09.175Z,6.30
2019-06-10T08:55:22.866Z,7.10
2019-06-10T08:57:51.630Z,7.10
2019-06-10T09:00:23.282Z,5.87
2019-06-10T09:02:50.222Z,11.27
2019-06-10T09:05:19.208Z,8.50
2019-06-10T09:07:49.600Z,7.00
2019-06-10T09:10:16.871Z,9.30
2019-06-10T09:12:46.083Z,6.60
2019-06-10T09:15:13.093Z,6.50
2019-06-10T09:17:40.195Z,7.40
2019-06-10T09:20:09.055Z,7.40
2019-06-10T09:22:35.505Z,7.43
2019-06-10T09:25:03.938Z,6.23
2019-06-10T09:27:32.786Z,10.03
2019-06-10T09:29:59.669Z,7.20
2019-06-10T09:32:26.030Z,6.50
2019-06-10T09:34:57.121Z,7.00
2019-06-10T09:37:23.226Z,7.17
2019-06-10T09:39:58.037Z,8.80
2019-06-10T09:42:17.433Z,8.20
2019-06-10T09:44:47.164Z,6.47
2019-06-10T09:47:14.265Z,7.70
2019-06-10T09:49:45.347Z,7.37
2019-06-10T09:52:10.188Z,7.17
2019-06-10T09:54:36.552Z,8.00
2019-06-10T09:57:03.383Z,25.60
2019-06-10T09:59:32.131Z,7.10
2019-06-10T10:02:02.743Z,7.13
2019-06-10T10:04:26.475Z,6.40
2019-06-10T10:06:57.106Z,6.93
2019-06-10T10:09:23.195Z,14.63
2019-06-10T10:11:51.321Z,8.50
2019-06-10T10:14:18.295Z,12.37
2019-06-10T10:16:49.345Z,12.20
2019-06-10T10:19:13.284Z,7.70
2019-06-10T10:21:45.005Z,7.00
2019-06-10T10:24:12.347Z,8.10
2019-06-10T10:26:36.323Z,7.80
2019-06-10T10:29:03.145Z,6.20
2019-06-10T10:31:29.509Z,12.47
2019-06-10T10:33:56.144Z,10.37
2019-06-10T10:36:22.736Z,9.53
2019-06-10T10:38:50.746Z,7.37
2019-06-10T10:41:17.362Z,7.37
2019-06-10T10:43:46.848Z,7.33
2019-06-10T10:46:13.995Z,8.60
2019-06-10T10:48:40.355Z,5.83
2019-06-10T10:51:06.710Z,7.70
2019-06-10T10:53:33.228Z,8.00
2019-06-10T10:56:02.278Z,6.53
2019-06-10T10:58:28.656Z,7.03
2019-06-10T11:00:57.850Z,11.60
2019-06-10T11:03:23.769Z,9.70
2019-06-10T11:05:52.460Z,7.37
2019-06-10T11:08:18.497Z,7.33
2019-06-10T11:10:47.693Z,7.73
2019-06-10T11:13:13.902Z,6.20
2019-06-10T11:15:40.426Z,11.93
2019-06-10T11:18:07.832Z,8.37
2019-06-10T11:20:34.683Z,7.97
2019-06-10T11:23:02.919Z,11.10
2019-06-10T11:25:29.264Z,9.90
2019-06-10T11:27:57.282Z,8.30
2019-06-10T11:30:24.085Z,12.60
2019-06-10T11:32:53.549Z,9.50
2019-06-10T11:35:18.905Z,8.43
2019-06-10T11:37:45.236Z,8.40
2019-06-10T11:40:13.649Z,7.80
2019-06-10T11:42:43.334Z,9.50
2019-06-10T11:45:09.493Z,6.63
2019-06-10T11:47:35.844Z,9.03
2019-06-10T11:50:05.117Z,7.27
2019-06-10T11:52:33.613Z,10.10
2019-06-10T11:55:11.640Z,11.93
2019-06-10T11:57:28.663Z,9.87
2019-06-10T11:59:56.563Z,6.40
2019-06-10T12:02:24.295Z,8.50
2019-06-10T12:04:53.208Z,8.97
2019-06-10T12:07:19.272Z,7.10
2019-06-10T12:09:45.849Z,6.10
2019-06-10T12:12:13.543Z,7.97
2019-06-10T12:14:40.315Z,10.57
2019-06-10T12:17:41.156Z,7.10
2019-06-10T12:19:35.338Z,17.50
2019-06-10T12:22:06.631Z,10.30
2019-06-10T12:24:33.161Z,9.13
2019-06-10T12:27:04.416Z,7.63
2019-06-10T12:29:29.443Z,9.53
2019-06-10T12:31:58.449Z,6.60
2019-06-10T12:34:24.088Z,6.40
2019-06-10T12:36:56.306Z,6.80
2019-06-10T12:39:22.790Z,4.83
2019-06-10T12:41:49.170Z,5.43
2019-06-10T12:44:15.787Z,4.63
2019-06-10T12:46:44.406Z,5.63
2019-06-10T12:49:13.134Z,4.43
2019-06-10T12:51:39.890Z,4.37
2019-06-10T12:54:07.582Z,4.87
2019-06-10T12:56:36.640Z,4.70
2019-06-10T12:59:09.333Z,4.23
2019-06-10T13:01:33.019Z,4.87
2019-06-10T13:04:04.863Z,4.03
2019-06-10T13:06:32.435Z,3.33
2019-06-10T13:09:06.287Z,4.30
2019-06-10T13:11:35.808Z,4.90
2019-06-10T13:14:06.120Z,3.93
2019-06-10T13:16:34.319Z,4.33
2019-06-10T13:19:03.283Z,6.03
2019-06-10T13:21:29.155Z,6.70
2019-06-10T13:23:57.939Z,5.77
2019-06-10T13:26:24.259Z,8.27
2019-06-10T13:28:52.481Z,6.60
2019-06-10T13:31:20.486Z,5.53
2019-06-10T13:33:48.264Z,6.40
2019-06-10T13:36:15.038Z,5.97
2019-06-10T13:38:42.787Z,5.90
2019-06-10T13:41:09.761Z,8.40
2019-06-10T13:43:36.323Z,5.77
2019-06-10T13:46:07.017Z,5.70
2019-06-10T13:48:32.177Z,6.53
2019-06-10T13:50:59.162Z,13.00
2019-06-10T13:53:25.489Z,12.20
2019-06-10T13:56:02.638Z,6.03
2019-06-10T13:58:22.930Z,6.20
2019-06-10T14:00:49.403Z,10.10
2019-06-10T14:03:16.383Z,6.90
2019-06-10T14:05:44.729Z,18.03
2019-06-10T14:08:15.124Z,14.73
2019-06-10T14:10:42.972Z,11.30
2019-06-10T14:13:13.391Z,7.27
2019-06-10T14:15:38.160Z,13.40
2019-06-10T14:18:07.000Z,8.60
2019-06-10T14:20:35.986Z,10.07
2019-06-10T14:23:01.416Z,6.83
2019-06-10T14:25:29.182Z,12.07
2019-06-10T14:27:55.608Z,7.70
2019-06-10T14:30:23.062Z,8.90
2019-06-10T14:32:53.327Z,11.10
2019-06-10T14:35:22.858Z,8.70
2019-06-10T14:37:49.954Z,9.20
2019-06-10T14:40:25.190Z,6.10
2019-06-10T14:42:56.773Z,7.70
2019-06-10T14:45:23.289Z,6.33
2019-06-10T14:47:49.963Z,8.23
2019-06-10T14:50:17.545Z,6.40
2019-06-10T14:52:43.986Z,8.27
2019-06-10T14:55:11.901Z,6.07
2019-06-10T14:57:39.287Z,8.77
2019-06-10T15:00:07.631Z,9.70
2019-06-10T15:02:34.181Z,6.20
2019-06-10T15:05:04.957Z,6.93
2019-06-10T15:07:33.037Z,6.00
2019-06-10T15:09:59.827Z,6.70
2019-06-10T15:12:26.159Z,6.70
2019-06-10T15:14:52.495Z,8.50
2019-06-10T15:17:22.508Z,10.73
2019-06-10T15:19:48.868Z,6.83
2019-06-10T15:22:16.977Z,7.27
2019-06-10T15:24:43.508Z,6.20
2019-06-10T15:27:18.723Z,6.00
2019-06-10T15:29:38.293Z,6.77
2019-06-10T15:32:14.066Z,8.20
2019-06-10T15:34:32.893Z,8.77
2019-06-10T15:36:59.320Z,8.63
2019-06-10T15:39:25.664Z,7.60
2019-06-10T15:41:52.416Z,7.93
2019-06-10T15:44:40.421Z,12.27
2019-06-10T15:46:47.119Z,7.20
2019-06-10T15:49:19.272Z,7.20
2019-06-10T15:51:44.124Z,7.43
2019-06-10T15:54:13.047Z,7.97
2019-06-10T15:56:48.653Z,8.53
2019-06-10T15:59:07.750Z,9.30
2019-06-10T16:01:34.101Z,9.30
2019-06-10T16:04:00.509Z,11.27
2019-06-10T16:06:30.064Z,9.67
2019-06-10T16:08:56.402Z,8.67
2019-06-10T16:11:26.775Z,6.60
2019-06-10T16:13:53.207Z,6.50
2019-06-10T16:16:20.939Z,5.70
2019-06-10T16:18:47.466Z,11.83
2019-06-10T16:21:15.621Z,16.10
2019-06-10T16:23:44.692Z,4.80
2019-06-10T16:26:13.128Z,7.63
2019-06-10T16:28:42.708Z,9.30
2019-06-10T16:31:09.446Z,5.77
2019-06-10T16:33:38.607Z,5.60
2019-06-10T16:36:05.254Z,7.40
2019-06-10T16:38:32.860Z,6.83
2019-06-10T16:41:04.433Z,8.70
2019-06-10T16:43:33.217Z,6.70
2019-06-10T16:45:59.148Z,7.63
2019-06-10T16:48:25.823Z,5.83
2019-06-10T16:50:54.298Z,6.93
2019-06-10T16:53:24.156Z,3.80
2019-06-10T16:55:48.786Z,5.13
2019-06-10T16:58:15.181Z,6.83
2019-06-10T17:00:43.268Z,9.53
2019-06-10T17:03:09.756Z,11.13
2019-06-10T17:05:36.110Z,5.67
2019-06-10T17:08:05.966Z,6.30
2019-06-10T17:10:34.475Z,4.53
2019-06-10T17:13:05.839Z,14.23
2019-06-10T17:15:32.365Z,7.73
2019-06-10T17:18:02.661Z,6.97
2019-06-10T17:20:29.772Z,9.20
2019-06-10T17:22:59.266Z,9.97
2019-06-10T17:25:26.928Z,6.93
2019-06-10T17:27:54.080Z,10.60
2019-06-10T17:30:23.671Z,15.67
2019-06-10T17:32:49.249Z,7.67
2019-06-10T17:35:16.003Z,9.53
2019-06-10T17:37:43.182Z,8.83
2019-06-10T17:40:10.210Z,10.30
2019-06-10T17:42:38.328Z,9.67
2019-06-10T17:45:05.467Z,8.67
2019-06-10T17:47:34.490Z,10.30
2019-06-10T17:50:02.359Z,8.87
2019-06-10T17:52:32.842Z,8.60
2019-06-10T17:54:58.725Z,15.73
2019-06-10T17:57:27.102Z,13.73
2019-06-10T17:59:53.558Z,5.97
2019-06-10T18:02:20.012Z,7.23
2019-06-10T18:04:46.360Z,7.20
2019-06-10T18:07:13.186Z,9.70
2019-06-10T18:09:39.651Z,10.50
2019-06-10T18:12:06.378Z,5.87
2019-06-10T18:14:36.193Z,11.33
2019-06-10T18:17:03.249Z,10.43
2019-06-10T18:19:34.197Z,11.30
2019-06-10T18:21:59.568Z,12.00
2019-06-10T18:24:27.861Z,11.70
2019-06-10T18:26:54.478Z,8.43
2019-06-10T18:29:23.013Z,9.00
2019-06-10T18:31:49.177Z,11.13
2019-06-10T18:34:15.646Z,11.00
2019-06-10T18:36:42.767Z,9.23
2019-06-10T18:39:12.235Z,8.87
2019-06-10T18:41:40.097Z,7.67
2019-06-10T18:44:19.772Z,11.57
2019-06-10T18:46:36.433Z,12.63
2019-06-10T18:49:03.376Z,29.97
2019-06-10T18:51:29.802Z,12.93
2019-06-10T18:53:56.421Z,13.37
2019-06-10T18:56:23.187Z,17.80
2019-06-10T18:58:49.843Z,11.53
2019-06-10T19:01:16.289Z,13.83
2019-06-10T19:03:42.921Z,14.63
2019-06-10T19:06:12.322Z,13.67
2019-06-10T19:08:39.339Z,18.57
2019-06-10T19:11:11.304Z,12.60
2019-06-10T19:13:39.129Z,21.00
2019-06-10T19:16:06.201Z,11.93
2019-06-10T19:18:33.921Z,10.57
2019-06-10T19:21:03.553Z,9.93
2019-06-10T19:23:30.152Z,12.13
2019-06-10T19:25:56.812Z,12.07
2019-06-10T19:28:46.752Z,13.67
2019-06-10T19:31:13.400Z,14.43
2019-06-10T19:33:41.334Z,17.73
2019-06-10T19:36:08.027Z,11.57
2019-06-10T19:38:35.502Z,13.20
2019-06-10T19:41:02.873Z,11.57
2019-06-10T19:43:29.308Z,13.80
2019-06-10T19:45:55.696Z,13.03
2019-06-10T19:48:22.439Z,12.07
2019-06-10T19:50:51.288Z,16.50
2019-06-10T19:53:17.812Z,13.90
2019-06-10T19:55:45.989Z,17.00
2019-06-10T19:58:13.404Z,13.50
2019-06-10T20:00:41.548Z,16.63
2019-06-10T20:03:09.893Z,14.30
2019-06-10T20:05:36.290Z,11.57
2019-06-10T20:08:03.177Z,8.83
2019-06-10T20:10:32.261Z,12.03
2019-06-10T20:12:58.568Z,13.03
2019-06-10T20:15:25.133Z,15.90
2019-06-10T20:17:52.588Z,10.73
2019-06-10T20:20:22.692Z,11.67
2019-06-10T20:22:48.493Z,11.03
2019-06-10T20:25:15.231Z,14.20
2019-06-10T20:27:45.502Z,9.70
2019-06-10T20:30:23.744Z,16.63
2019-06-10T20:32:46.489Z,15.10
2019-06-10T20:35:12.570Z,23.13
2019-06-10T20:37:39.618Z,22.40
2019-06-10T20:40:06.817Z,22.63
2019-06-10T20:42:33.387Z,19.13
2019-06-10T20:45:04.674Z,29.80
2019-06-10T20:47:29.600Z,23.13
2019-06-10T20:49:56.381Z,22.23
2019-06-10T20:52:23.092Z,22.43
2019-06-10T20:54:53.210Z,25.73
2019-06-10T20:57:22.532Z,25.73
2019-06-10T20:59:49.806Z,21.10
2019-06-10T21:02:17.250Z,29.47
2019-06-10T21:04:45.562Z,15.03
2019-06-10T21:07:13.297Z,20.17
2019-06-10T21:09:42.026Z,25.60
2019-06-10T21:12:09.307Z,17.50
2019-06-10T21:14:36.515Z,17.57
2019-06-10T21:17:03.255Z,23.33
2019-06-10T21:19:30.299Z,21.50
2019-06-10T21:21:56.646Z,15.83
2019-06-10T21:24:24.738Z,17.90
2019-06-10T21:26:54.766Z,26.03
2019-06-10T21:29:20.517Z,19.10
2019-06-10T21:31:54.483Z,24.53
2019-06-10T21:34:22.418Z,16.03
2019-06-10T21:36:49.506Z,20.23
2019-06-10T21:39:16.497Z,21.20
2019-06-10T21:41:45.243Z,23.40
2019-06-10T21:44:13.163Z,24.53
2019-06-10T21:46:39.445Z,22.67
2019-06-10T21:49:06.752Z,24.47
2019-06-10T21:51:34.662Z,25.70
2019-06-10T21:54:03.056Z,14.10
2019-06-10T21:56:29.537Z,17.40
2019-06-10T21:58:55.903Z,25.60
2019-06-10T22:01:22.690Z,11.83
2019-06-10T22:03:59.985Z,14.77
2019-06-10T22:06:19.962Z,10.67
2019-06-10T22:08:47.718Z,25.40
2019-06-10T22:11:14.179Z,9.97
2019-06-10T22:13:41.038Z,14.13
2019-06-10T22:16:07.666Z,13.07
2019-06-10T22:18:34.037Z,11.77
2019-06-10T22:21:02.788Z,19.93
2019-06-10T22:23:28.694Z,17.63
2019-06-10T22:25:57.546Z,14.90
2019-06-10T22:28:23.709Z,15.70
2019-06-10T22:30:52.580Z,16.30
2019-06-10T22:33:18.496Z,13.67
2019-06-10T22:35:45.449Z,12.33
2019-06-10T22:38:13.129Z,16.43
2019-06-10T22:40:39.871Z,11.77
2019-06-10T22:43:07.725Z,15.43
2019-06-10T22:45:34.419Z,19.47
2019-06-10T22:48:02.897Z,19.13
2019-06-10T22:50:29.340Z,13.43
2019-06-10T22:52:57.466Z,12.20
2019-06-10T22:55:24.063Z,26.23
2019-06-10T22:57:54.703Z,14.07
2019-06-10T23:00:22.101Z,17.03
2019-06-10T23:02:48.252Z,14.37
2019-06-10T23:05:17.485Z,18.17
2019-06-10T23:07:43.959Z,20.97
2019-06-10T23:10:12.341Z,18.53
2019-06-10T23:12:38.624Z,12.03
2019-06-10T23:15:05.990Z,13.20
2019-06-10T23:17:32.342Z,15.33
2019-06-10T23:19:59.760Z,15.03
2019-06-10T23:22:26.377Z,19.33
2019-06-10T23:24:53.595Z,14.33
2019-06-10T23:27:22.188Z,16.83
2019-06-10T23:29:48.418Z,15.43
2019-06-10T23:32:15.315Z,21.33
2019-06-10T23:34:42.258Z,12.37
2019-06-10T23:37:09.008Z,19.13
2019-06-10T23:39:35.355Z,13.90
2019-06-10T23:42:03.953Z,14.47
2019-06-10T23:44:29.946Z,22.43
2019-06-10T23:46:57.371Z,17.40
2019-06-10T23:49:24.678Z,12.60
2019-06-10T23:51:54.068Z,17.63
2019-06-10T23:54:19.260Z,15.00
2019-06-10T23:56:45.707Z,15.20
2019-06-10T23:59:12.167Z,14.43
